This is the latest recevied weather packets stored in our database for station/object YC0ACE-13. If no packets are shown the sender has not sent any weather packets the latest 10 day(s).
| Time | Temp. | Humidity | Pressure | Rain* | Wind** | Luminosity | Snow |
|---|---|---|---|---|---|---|---|
| 1777614624 | 33.89° C | 60% | 1013.9 hPa | 0 mm | - | 179 W/m² | - |
| 1777614324 | 35° C | 58% | 1013.5 hPa | 0 mm | - | 201 W/m² | - |
| 1777614025 | 35.56° C | 50% | 1013.9 hPa | 0 mm | - | 226 W/m² | - |
| 1777613726 | 35.56° C | 50% | 1013.9 hPa | 0 mm | - | 811 W/m² | - |
| 1777613424 | 35° C | 51% | 1013.9 hPa | 0 mm | - | 570 W/m² | - |
| 1777612847 | 35° C | 53% | 1013.9 hPa | 0 mm | - | 825 W/m² | - |
| 1777612525 | 35° C | 53% | 1013.9 hPa | 0 mm | - | 845 W/m² | - |
| 1777612224 | 35° C | 54% | 1014.2 hPa | 0 mm | - | 857 W/m² | - |
| 1777611925 | 33.89° C | 55% | 1014.2 hPa | 0 mm | - | 874 W/m² | - |
| 1777611625 | 33.33° C | 58% | 1014.2 hPa | 0 mm | - | 845 W/m² | - |
| 1777611326 | 34.44° C | 55% | 1014.6 hPa | 0 mm | - | 860 W/m² | - |
| 1777611024 | 33.89° C | 55% | 1014.6 hPa | 0 mm | - | 848 W/m² | - |
| 1777610725 | 35° C | 54% | 1014.9 hPa | 0 mm | - | 860 W/m² | - |
| 1777610425 | 35° C | 54% | 1014.9 hPa | 0 mm | - | 865 W/m² | - |
| 1777610125 | 33.89° C | 56% | 1014.9 hPa | 0 mm | - | 836 W/m² | - |
| 1777609825 | 32.78° C | 60% | 1014.9 hPa | 0 mm | - | 855 W/m² | - |
| 1777609525 | 32.78° C | 60% | 1015.2 hPa | 0 mm | - | 858 W/m² | - |
| 1777609226 | 32.22° C | 61% | 1015.2 hPa | 0 mm | - | 836 W/m² | - |
| 1777608924 | 32.78° C | 59% | 1015.6 hPa | 0 mm | - | 832 W/m² | - |
| 1777608625 | 32.78° C | 60% | 1015.6 hPa | 0 mm | - | 860 W/m² | - |
| 1777608325 | 32.78° C | 61% | 1015.9 hPa | 0 mm | - | 854 W/m² | - |
| 1777608025 | 32.22° C | 62% | 1015.9 hPa | 0 mm | - | 816 W/m² | - |
| 1777607725 | 32.22° C | 63% | 1015.9 hPa | 0 mm | - | 760 W/m² | - |
| 1777607425 | 32.22° C | 63% | 1015.9 hPa | 0 mm | - | 534 W/m² | - |
| 1777607125 | 31.67° C | 63% | 1016.3 hPa | 0 mm | - | 861 W/m² | - |
* Rain latest hour (hover to see other rain measurements)
** Current wind speed in m/s (hover to see current wind gust speed)